TNCM/SXM METAR and TAF weather

Enter ICAO airport designator
Station Type Date Time Source
TNCM METAR 2020/11/25 22:00 UTC NOAA

TNCM 252200Z 04005KT 9999 FEW018 27/22 Q1014 NOSIG


Station Type Date Time Source
TNCM Decoded METAR 2020/11/25 22:00 UTC NOAA

Juliana Airport, Saint Maarten, Netherlands Antilles (TNCM) 18-03N 063-07W 9M
Nov 25, 2020 - 05:00 PM EST / 2020.11.25 2200 UTC
Wind: from the NE (040 degrees) at 6 MPH (5 KT):0
Visibility: greater than 7 mile(s):0
Sky conditions: mostly clear
Temperature: 80 F (27 C)
Dew Point: 71 F (22 C)
Relative Humidity: 74%
Pressure (altimeter): 29.94 in. Hg (1014 hPa)
ob: TNCM 252200Z 04005KT 9999 FEW018 27/22 Q1014 NOSIG
cycle: 22

Station Type Date Time Source
TNCM TAF 2020/11/25 18:24 UTC NOAA

TAF TNCM 251720Z 2518/2618 08007KT P6SM VCSH SCT018

Example: see airport list